Time;durP1;ratioP1;P1;durP2;ratioP2;P2;SDS_P1;SDS_P2;PMS_P1;PMS_P2;Temp;Humidity;BMP_temperature;BMP_pressure;BME280_temperature;BME280_humidity;BME280_pressure;Samples;Min_cycle;Max_cycle;Signal;HPM_P1;HPM_P2
2022/08/19 00:02:34;0.00;0.00;0.62;0.00;0.00;0.62;4.87;4.20;;;28.70;37.40;;;;;;2241857;62;20378;-63
2022/08/19 00:05:22;0.00;0.00;0.62;0.00;0.00;0.62;6.50;4.10;;;28.70;37.40;;;;;;2241373;62;20824;-63
2022/08/19 00:08:07;0.00;0.00;0.62;0.00;0.00;0.62;4.53;4.10;;;28.70;37.40;;;;;;2241829;62;20378;-65
2022/08/19 00:10:52;0.00;0.00;0.62;0.00;0.00;0.62;4.93;4.53;;;28.70;37.40;;;;;;2242172;62;20398;-62
2022/08/19 00:13:38;0.00;0.00;0.62;0.00;0.00;0.62;6.33;5.10;;;28.70;37.50;;;;;;2241360;62;20393;-65
2022/08/19 00:16:24;0.00;0.00;0.62;0.00;0.00;0.62;5.53;4.80;;;28.60;37.50;;;;;;2241627;62;20774;-61
2022/08/19 00:19:09;0.00;0.00;0.62;0.00;0.00;0.62;5.33;4.83;;;28.60;37.50;;;;;;2242364;62;20346;-62
2022/08/19 00:21:57;0.00;0.00;0.62;0.00;0.00;0.62;5.27;4.77;;;28.60;37.50;;;;;;2242312;62;20375;-62
2022/08/19 00:24:43;0.00;0.00;0.62;0.00;0.00;0.62;6.83;4.80;;;28.60;37.50;;;;;;2241855;62;20474;-64
2022/08/19 00:27:28;0.00;0.00;0.62;0.00;0.00;0.62;6.73;4.50;;;28.60;37.50;;;;;;2241263;62;20378;-65
2022/08/19 00:30:13;0.00;0.00;0.62;0.00;0.00;0.62;5.13;4.63;;;28.60;37.60;;;;;;2241751;62;20366;-63
2022/08/19 00:32:59;0.00;0.00;0.62;0.00;0.00;0.62;5.63;4.40;;;28.50;37.70;;;;;;2241954;62;20766;-63
2022/08/19 00:35:45;0.00;0.00;0.62;0.00;0.00;0.62;5.73;4.23;;;28.50;37.70;;;;;;2241229;62;20414;-63
2022/08/19 00:38:31;0.00;0.00;0.62;0.00;0.00;0.62;4.27;3.87;;;28.50;37.80;;;;;;2241812;62;20370;-65
2022/08/19 00:41:21;0.00;0.00;0.62;0.00;0.00;0.62;4.63;3.87;;;28.50;37.80;;;;;;2242108;62;20506;-65
2022/08/19 00:44:10;0.00;0.00;0.62;0.00;0.00;0.62;5.07;4.57;;;28.50;37.80;;;;;;2241926;62;20382;-64
2022/08/19 00:46:58;0.00;0.00;0.62;0.00;0.00;0.62;5.53;4.27;;;28.50;37.80;;;;;;2241678;62;20423;-65
2022/08/19 00:49:50;0.00;0.00;0.62;0.00;0.00;0.62;4.50;4.00;;;28.50;37.80;;;;;;2241285;62;20366;-63
2022/08/19 00:52:45;0.00;0.00;0.62;0.00;0.00;0.62;5.10;4.40;;;28.50;37.80;;;;;;2241820;62;20359;-63
2022/08/19 00:55:33;0.00;0.00;0.62;0.00;0.00;0.62;5.50;4.40;;;28.50;37.80;;;;;;2242004;62;20471;-65
2022/08/19 00:58:25;0.00;0.00;0.62;0.00;0.00;0.62;5.63;4.37;;;28.50;37.80;;;;;;2241208;62;20382;-66
2022/08/19 01:01:10;0.00;0.00;0.62;0.00;0.00;0.62;4.80;4.30;;;28.50;37.80;;;;;;2241737;62;20699;-63
2022/08/19 01:03:55;0.00;0.00;0.62;0.00;0.00;0.62;5.27;4.37;;;28.50;37.80;;;;;;2241192;62;20411;-65
2022/08/19 01:06:43;0.00;0.00;0.62;0.00;0.00;0.62;3.90;3.40;;;28.50;37.80;;;;;;2241951;62;20422;-63
2022/08/19 01:09:29;0.00;0.00;0.62;0.00;0.00;0.62;4.60;3.90;;;28.50;37.80;;;;;;2241973;62;20403;-65
2022/08/19 01:12:16;0.00;0.00;0.62;0.00;0.00;0.62;4.10;3.70;;;28.50;37.80;;;;;;2241083;62;20374;-65
2022/08/19 01:15:01;0.00;0.00;0.62;0.00;0.00;0.62;5.53;4.37;;;28.40;37.80;;;;;;2241662;62;20370;-64
2022/08/19 01:17:46;0.00;0.00;0.62;0.00;0.00;0.62;4.47;4.07;;;28.40;37.90;;;;;;2241807;62;20782;-64
2022/08/19 01:20:31;0.00;0.00;0.62;0.00;0.00;0.62;5.60;4.00;;;28.40;37.90;;;;;;2241349;62;20746;-65
2022/08/19 01:23:17;0.00;0.00;0.62;0.00;0.00;0.62;4.50;4.10;;;28.40;37.90;;;;;;2241773;62;20370;-64
2022/08/19 01:26:02;0.00;0.00;0.62;0.00;0.00;0.62;5.70;4.90;;;28.40;37.90;;;;;;2240761;62;20774;-64
2022/08/19 01:28:51;0.00;0.00;0.62;0.00;0.00;0.62;5.70;4.70;;;28.40;37.90;;;;;;2241984;62;20742;-66
2022/08/19 01:31:36;0.00;0.00;0.62;0.00;0.00;0.62;7.50;4.60;;;28.40;37.90;;;;;;2241906;62;20370;-66
2022/08/19 01:34:21;0.00;0.00;0.62;0.00;0.00;0.62;4.70;3.97;;;28.40;37.90;;;;;;2241000;62;20362;-65
2022/08/19 01:37:08;0.00;0.00;0.62;0.00;0.00;0.62;6.40;5.30;;;28.30;37.90;;;;;;2241577;62;20381;-63
2022/08/19 01:39:54;0.00;0.00;0.62;0.00;0.00;0.62;5.97;5.13;;;28.30;37.90;;;;;;2241419;62;20413;-66
2022/08/19 01:42:40;0.00;0.00;0.62;0.00;0.00;0.62;5.60;4.60;;;28.30;38.00;;;;;;2241272;62;20370;-62
2022/08/19 01:45:28;0.00;0.00;0.62;0.00;0.00;0.62;4.20;3.67;;;28.30;38.00;;;;;;2241773;62;20393;-63
2022/08/19 01:48:14;0.00;0.00;0.62;0.00;0.00;0.62;4.60;4.20;;;28.30;38.00;;;;;;2241782;62;20406;-64
2022/08/19 01:50:59;0.00;0.00;0.62;0.00;0.00;0.62;5.57;3.63;;;28.30;38.10;;;;;;2242523;62;20386;-63
2022/08/19 01:53:48;0.00;0.00;0.62;0.00;0.00;0.62;4.30;3.90;;;28.30;38.10;;;;;;2242457;62;20439;-66
2022/08/19 01:56:34;0.00;0.00;0.62;0.00;0.00;0.62;5.80;4.20;;;28.30;38.10;;;;;;2241590;62;20378;-66
2022/08/19 01:59:23;0.00;0.00;0.62;0.00;0.00;0.62;4.73;4.30;;;28.40;38.00;;;;;;2242186;62;20358;-65
2022/08/19 02:02:08;0.00;0.00;0.62;0.00;0.00;0.62;4.80;3.93;;;28.40;38.00;;;;;;2242553;62;20386;-62
2022/08/19 02:04:53;0.00;0.00;0.62;0.00;0.00;0.62;4.30;3.90;;;28.40;38.00;;;;;;2241777;62;20435;-66
2022/08/19 02:07:39;0.00;0.00;0.62;0.00;0.00;0.62;4.50;4.10;;;28.40;38.00;;;;;;2242120;62;20415;-65
2022/08/19 02:10:24;0.00;0.00;0.62;0.00;0.00;0.62;4.70;3.60;;;28.40;38.00;;;;;;2241718;62;20737;-64
2022/08/19 02:13:13;0.00;0.00;0.62;0.00;0.00;0.62;6.63;3.87;;;28.40;38.00;;;;;;2242380;62;20403;-66
2022/08/19 02:15:58;0.00;0.00;0.62;0.00;0.00;0.62;5.07;4.20;;;28.40;38.00;;;;;;2242265;62;20458;-66
2022/08/19 02:18:42;0.00;0.00;0.62;0.00;0.00;0.62;4.70;4.00;;;28.40;38.00;;;;;;2241733;62;20406;-65
2022/08/19 02:21:28;0.00;0.00;0.62;0.00;0.00;0.62;5.23;3.20;;;28.40;38.00;;;;;;2242204;62;20837;-66
2022/08/19 02:24:13;0.00;0.00;0.62;0.00;0.00;0.62;3.63;3.30;;;28.40;38.00;;;;;;2242441;62;20394;-64
2022/08/19 02:26:58;0.00;0.00;0.62;0.00;0.00;0.62;4.70;2.87;;;28.50;38.00;;;;;;2241467;62;20426;-64
2022/08/19 02:29:46;0.00;0.00;0.62;0.00;0.00;0.62;4.20;3.43;;;28.50;37.90;;;;;;2242231;62;20398;-66
2022/08/19 02:32:32;0.00;0.00;0.62;0.00;0.00;0.62;4.90;4.17;;;28.50;37.90;;;;;;2241324;62;20370;-65
2022/08/19 02:35:17;0.00;0.00;0.62;0.00;0.00;0.62;8.77;5.53;;;28.50;37.80;;;;;;2242308;62;20715;-66
2022/08/19 02:41:11;0.00;0.00;0.62;0.00;0.00;0.62;4.27;3.87;;;28.50;37.80;;;;;;2241495;62;20410;-65
2022/08/19 02:43:57;0.00;0.00;0.62;0.00;0.00;0.62;3.50;3.20;;;28.60;37.90;;;;;;2241806;62;20359;-64
2022/08/19 02:46:46;0.00;0.00;0.62;0.00;0.00;0.62;3.83;3.10;;;28.60;37.80;;;;;;2242183;62;20403;-65
2022/08/19 02:49:31;0.00;0.00;0.62;0.00;0.00;0.62;4.20;3.37;;;28.60;37.80;;;;;;2241950;62;20905;-64
2022/08/19 02:52:16;0.00;0.00;0.62;0.00;0.00;0.62;3.33;2.80;;;28.60;37.80;;;;;;2242151;62;20358;-64
2022/08/19 02:55:02;0.00;0.00;0.62;0.00;0.00;0.62;3.50;3.20;;;28.60;37.80;;;;;;2241444;62;20394;-66
2022/08/19 02:57:47;0.00;0.00;0.62;0.00;0.00;0.62;4.00;3.57;;;28.60;37.70;;;;;;2242197;61;20757;-63
2022/08/19 03:00:32;0.00;0.00;0.62;0.00;0.00;0.62;4.30;3.53;;;28.60;37.70;;;;;;2242378;62;20583;-63
2022/08/19 03:03:19;0.00;0.00;0.62;0.00;0.00;0.62;4.47;3.00;;;28.60;37.70;;;;;;2241596;62;20655;-64
2022/08/19 03:06:08;0.00;0.00;0.62;0.00;0.00;0.62;4.60;3.40;;;28.60;37.60;;;;;;2241839;62;20426;-66
2022/08/19 03:08:53;0.00;0.00;0.62;0.00;0.00;0.62;4.60;3.47;;;28.60;37.60;;;;;;2242310;62;20370;-65
2022/08/19 03:11:39;0.00;0.00;0.62;0.00;0.00;0.62;4.23;3.83;;;28.60;37.60;;;;;;2241739;62;20378;-63
2022/08/19 03:14:24;0.00;0.00;0.62;0.00;0.00;0.62;7.80;3.50;;;28.70;37.60;;;;;;2242054;62;20402;-64
2022/08/19 03:17:09;0.00;0.00;0.62;0.00;0.00;0.62;5.07;3.37;;;28.60;37.60;;;;;;2241276;62;20632;-65
2022/08/19 03:19:55;0.00;0.00;0.62;0.00;0.00;0.62;4.33;3.03;;;28.70;37.60;;;;;;2242352;62;20415;-66
2022/08/19 03:22:40;0.00;0.00;0.62;0.00;0.00;0.62;3.53;3.13;;;28.60;37.50;;;;;;2242201;62;20370;-66
2022/08/19 03:25:24;0.00;0.00;0.62;0.00;0.00;0.62;5.20;3.23;;;28.70;37.50;;;;;;2241347;62;20398;-66
2022/08/19 03:28:11;0.00;0.00;0.62;0.00;0.00;0.62;4.50;3.47;;;28.70;37.50;;;;;;2242095;62;20439;-65
2022/08/19 03:30:59;0.00;0.00;0.62;0.00;0.00;0.62;7.17;3.60;;;28.70;37.50;;;;;;2241821;62;20639;-66
2022/08/19 03:33:44;0.00;0.00;0.62;0.00;0.00;0.62;3.80;3.43;;;28.60;37.50;;;;;;2241551;62;20479;-65
2022/08/19 03:36:31;0.00;0.00;0.62;0.00;0.00;0.62;4.40;3.90;;;28.60;37.50;;;;;;2241860;62;20398;-65
2022/08/19 03:39:17;0.00;0.00;0.62;0.00;0.00;0.62;6.13;4.00;;;28.60;37.40;;;;;;2241397;62;20710;-64
2022/08/19 03:42:02;0.00;0.00;0.62;0.00;0.00;0.62;3.13;2.73;;;28.60;37.30;;;;;;2242240;62;20371;-63
2022/08/19 03:44:48;0.00;0.00;0.62;0.00;0.00;0.62;4.33;2.60;;;28.60;37.40;;;;;;2242184;62;20625;-64
2022/08/19 03:47:32;0.00;0.00;0.62;0.00;0.00;0.62;4.00;3.60;;;28.60;37.40;;;;;;2241545;62;20382;-63
2022/08/19 03:50:17;0.00;0.00;0.62;0.00;0.00;0.62;3.87;3.50;;;28.60;37.50;;;;;;2241999;62;20382;-65
2022/08/19 03:53:04;0.00;0.00;0.62;0.00;0.00;0.62;4.37;3.97;;;28.50;37.40;;;;;;2242165;62;20370;-62
2022/08/19 03:55:48;0.00;0.00;0.62;0.00;0.00;0.62;4.10;2.73;;;28.50;37.40;;;;;;2241278;62;20558;-62
2022/08/19 03:58:33;0.00;0.00;0.62;0.00;0.00;0.62;3.13;2.83;;;28.50;37.40;;;;;;2241730;62;20734;-64
2022/08/19 04:01:21;0.00;0.00;0.62;0.00;0.00;0.62;5.30;3.73;;;28.50;37.40;;;;;;2241552;62;20755;-61
2022/08/19 04:04:06;0.00;0.00;0.62;0.00;0.00;0.62;5.30;3.60;;;28.50;37.40;;;;;;2242139;62;20591;-62
2022/08/19 04:06:51;0.00;0.00;0.62;0.00;0.00;0.62;4.43;3.60;;;28.50;37.40;;;;;;2241907;61;20602;-66
2022/08/19 04:09:37;0.00;0.00;0.62;0.00;0.00;0.62;5.50;3.93;;;28.50;37.40;;;;;;2241296;62;20426;-66
2022/08/19 04:12:22;0.00;0.00;0.62;0.00;0.00;0.62;4.40;3.50;;;28.50;37.40;;;;;;2241401;62;20450;-62
2022/08/19 04:15:08;0.00;0.00;0.62;0.00;0.00;0.62;5.00;3.50;;;28.40;37.30;;;;;;2242082;62;20229;-65
2022/08/19 04:17:54;0.00;0.00;0.62;0.00;0.00;0.62;3.90;3.50;;;28.50;37.40;;;;;;2241129;62;20386;-64
2022/08/19 04:20:42;0.00;0.00;0.62;0.00;0.00;0.62;4.03;3.07;;;28.50;37.40;;;;;;2241914;62;20367;-64
2022/08/19 04:23:29;0.00;0.00;0.62;0.00;0.00;0.62;4.60;4.20;;;28.40;37.40;;;;;;2241810;62;20410;-66
2022/08/19 04:26:18;0.00;0.00;0.62;0.00;0.00;0.62;5.73;4.50;;;28.40;37.30;;;;;;2241809;62;20390;-63
2022/08/19 04:29:07;0.00;0.00;0.62;0.00;0.00;0.62;4.50;4.10;;;28.40;37.30;;;;;;2241968;62;20371;-64
2022/08/19 04:31:53;0.00;0.00;0.62;0.00;0.00;0.62;4.70;4.03;;;28.30;37.30;;;;;;2241152;62;20410;-64
2022/08/19 04:34:38;0.00;0.00;0.62;0.00;0.00;0.62;4.20;3.50;;;28.30;37.30;;;;;;2241801;62;20622;-62
2022/08/19 04:37:24;0.00;0.00;0.62;0.00;0.00;0.62;5.50;3.60;;;28.30;37.40;;;;;;2242075;62;20676;-63
2022/08/19 04:43:15;0.00;0.00;0.62;0.00;0.00;0.62;4.23;3.10;;;28.20;37.50;;;;;;2241922;62;20762;-65
2022/08/19 04:46:05;0.00;0.00;0.62;0.00;0.00;0.62;4.70;3.40;;;28.20;37.60;;;;;;2240875;62;20896;-63
2022/08/19 04:48:50;0.00;0.00;0.62;0.00;0.00;0.62;7.23;3.43;;;28.20;37.60;;;;;;2241986;62;20426;-64
2022/08/19 04:51:36;0.00;0.00;0.62;0.00;0.00;0.62;4.60;3.63;;;28.20;37.60;;;;;;2242062;62;20763;-65
2022/08/19 04:54:24;0.00;0.00;0.62;0.00;0.00;0.62;4.20;3.23;;;28.20;37.60;;;;;;2241042;62;20618;-65
2022/08/19 04:57:10;0.00;0.00;0.62;0.00;0.00;0.62;4.17;3.37;;;28.20;37.60;;;;;;2241661;62;20430;-62
2022/08/19 04:59:57;0.00;0.00;0.62;0.00;0.00;0.62;6.47;3.47;;;28.20;37.60;;;;;;2241955;62;20387;-63
2022/08/19 05:02:42;0.00;0.00;0.62;0.00;0.00;0.62;5.43;4.10;;;28.10;37.50;;;;;;2241320;62;20405;-64
2022/08/19 05:05:26;0.00;0.00;0.62;0.00;0.00;0.62;4.40;3.43;;;28.10;37.50;;;;;;2241740;62;20464;-64
2022/08/19 05:08:12;0.00;0.00;0.62;0.00;0.00;0.62;4.20;3.40;;;28.10;37.50;;;;;;2241130;62;20370;-63
2022/08/19 05:10:57;0.00;0.00;0.62;0.00;0.00;0.62;6.13;4.50;;;28.10;37.50;;;;;;2242008;62;20406;-64
2022/08/19 05:13:43;0.00;0.00;0.62;0.00;0.00;0.62;4.17;3.63;;;28.10;37.60;;;;;;2241959;62;20386;-62
2022/08/19 05:16:30;0.00;0.00;0.62;0.00;0.00;0.62;3.60;3.00;;;28.00;37.50;;;;;;2241009;62;20422;-64
2022/08/19 05:22:37;0.00;0.00;0.62;0.00;0.00;0.62;5.00;4.00;;;28.00;37.70;;;;;;2243161;62;20358;-66
2022/08/19 05:25:22;0.00;0.00;0.62;0.00;0.00;0.62;3.17;2.80;;;28.00;37.80;;;;;;2243218;62;20801;-65
2022/08/19 05:28:07;0.00;0.00;0.62;0.00;0.00;0.62;5.27;3.30;;;28.00;37.90;;;;;;2242928;62;20497;-63
2022/08/19 05:30:51;0.00;0.00;0.62;0.00;0.00;0.62;4.70;3.70;;;27.90;37.90;;;;;;2242450;62;20410;-62
2022/08/19 05:33:39;0.00;0.00;0.62;0.00;0.00;0.62;4.93;4.43;;;27.90;37.90;;;;;;2243004;62;20385;-65
2022/08/19 05:36:24;0.00;0.00;0.62;0.00;0.00;0.62;4.83;3.77;;;27.90;38.00;;;;;;2242923;62;20612;-65
2022/08/19 05:39:13;0.00;0.00;0.62;0.00;0.00;0.62;6.90;4.33;;;27.90;38.00;;;;;;2242498;62;20362;-62
2022/08/19 05:42:02;0.00;0.00;0.62;0.00;0.00;0.62;4.40;3.43;;;27.90;38.00;;;;;;2242645;62;20436;-63
2022/08/19 05:44:48;0.00;0.00;0.62;0.00;0.00;0.62;5.80;4.83;;;27.90;38.00;;;;;;2243026;62;20369;-66
2022/08/19 05:47:33;0.00;0.00;0.62;0.00;0.00;0.62;4.63;4.13;;;27.90;38.00;;;;;;2243101;62;20433;-62
2022/08/19 05:50:19;0.00;0.00;0.62;0.00;0.00;0.62;4.60;3.53;;;27.90;38.00;;;;;;2242814;62;20358;-67
2022/08/19 05:53:04;0.00;0.00;0.62;0.00;0.00;0.62;4.13;3.20;;;27.90;38.00;;;;;;2241670;62;20378;-68
2022/08/19 05:55:49;0.00;0.00;0.62;0.00;0.00;0.62;5.13;3.43;;;27.90;38.00;;;;;;2242755;62;20370;-69
2022/08/19 05:58:36;0.00;0.00;0.62;0.00;0.00;0.62;5.03;4.40;;;27.90;38.10;;;;;;2242918;62;20393;-65
2022/08/19 06:01:21;0.00;0.00;0.62;0.00;0.00;0.62;6.00;5.40;;;27.90;38.00;;;;;;2242282;62;20370;-72
2022/08/19 06:04:06;0.00;0.00;0.62;0.00;0.00;0.62;4.60;4.03;;;27.90;38.00;;;;;;2242809;62;20370;-63
2022/08/19 06:06:54;0.00;0.00;0.62;0.00;0.00;0.62;6.10;5.50;;;27.90;38.00;;;;;;2243014;62;20394;-71
2022/08/19 06:09:39;0.00;0.00;0.62;0.00;0.00;0.62;7.10;6.40;;;27.90;38.00;;;;;;2242944;62;20766;-66
2022/08/19 06:12:28;0.00;0.00;0.62;0.00;0.00;0.62;7.17;5.73;;;27.90;38.00;;;;;;2242749;62;20634;-64
2022/08/19 06:15:14;0.00;0.00;0.62;0.00;0.00;0.62;6.73;4.17;;;27.90;38.00;;;;;;2242082;62;20582;-68
2022/08/19 06:17:59;0.00;0.00;0.62;0.00;0.00;0.62;8.57;5.40;;;27.90;38.00;;;;;;2242662;62;20650;-72
2022/08/19 06:20:43;0.00;0.00;0.62;0.00;0.00;0.62;5.60;5.10;;;27.90;38.00;;;;;;2242897;62;20635;-66
2022/08/19 06:23:30;0.00;0.00;0.62;0.00;0.00;0.62;7.73;5.47;;;27.90;38.00;;;;;;2242124;62;20499;-72
2022/08/19 06:26:16;0.00;0.00;0.62;0.00;0.00;0.62;6.17;4.77;;;27.90;38.00;;;;;;2242533;62;20810;-69
2022/08/19 06:29:02;0.00;0.00;0.62;0.00;0.00;0.62;5.70;5.10;;;27.90;38.00;;;;;;2242871;62;20362;-66
2022/08/19 06:31:57;0.00;0.00;0.62;0.00;0.00;0.62;5.83;4.63;;;27.90;38.00;;;;;;2242274;62;20366;-70
2022/08/19 06:34:42;0.00;0.00;0.62;0.00;0.00;0.62;5.70;4.73;;;27.90;38.10;;;;;;2242211;62;20430;-67
2022/08/19 06:37:27;0.00;0.00;0.62;0.00;0.00;0.62;5.37;4.87;;;27.90;38.10;;;;;;2241328;62;20773;-66
2022/08/19 06:40:13;0.00;0.00;0.62;0.00;0.00;0.62;5.50;4.80;;;27.90;38.10;;;;;;2242076;62;20398;-64
2022/08/19 06:42:59;0.00;0.00;0.62;0.00;0.00;0.62;5.60;4.40;;;28.00;38.20;;;;;;2242157;62;20379;-68
2022/08/19 06:45:44;0.00;0.00;0.62;0.00;0.00;0.62;7.50;5.50;;;28.00;38.00;;;;;;2241108;62;20414;-70
2022/08/19 06:48:29;0.00;0.00;0.62;0.00;0.00;0.62;8.70;6.97;;;28.00;38.00;;;;;;2242167;62;20602;-70
2022/08/19 06:51:15;0.00;0.00;0.62;0.00;0.00;0.62;7.17;6.43;;;28.00;37.90;;;;;;2242149;62;20438;-70
2022/08/19 06:54:01;0.00;0.00;0.62;0.00;0.00;0.62;8.60;6.00;;;28.00;37.90;;;;;;2241646;62;20370;-70
2022/08/19 06:56:47;0.00;0.00;0.62;0.00;0.00;0.62;6.40;5.60;;;28.10;37.90;;;;;;2241914;62;20786;-69
2022/08/19 06:59:33;0.00;0.00;0.62;0.00;0.00;0.62;10.57;8.13;;;28.10;37.90;;;;;;2241228;62;20359;-71
2022/08/19 07:02:20;0.00;0.00;0.62;0.00;0.00;0.62;9.13;6.73;;;28.10;37.70;;;;;;2242167;62;20366;-70
2022/08/19 07:05:06;0.00;0.00;0.62;0.00;0.00;0.62;7.90;6.80;;;28.10;37.70;;;;;;2242040;62;20407;-70
2022/08/19 07:07:51;0.00;0.00;0.62;0.00;0.00;0.62;6.90;6.20;;;28.10;37.70;;;;;;2241216;62;20402;-68
2022/08/19 07:10:36;0.00;0.00;0.62;0.00;0.00;0.62;9.70;7.83;;;28.10;37.70;;;;;;2242156;62;20367;-65
2022/08/19 07:13:24;0.00;0.00;0.62;0.00;0.00;0.62;9.60;7.87;;;28.20;37.80;;;;;;2242044;62;20398;-69
2022/08/19 07:16:12;0.00;0.00;0.62;0.00;0.00;0.62;12.60;8.30;;;28.20;37.70;;;;;;2241412;62;20386;-69
2022/08/19 07:18:58;0.00;0.00;0.62;0.00;0.00;0.62;8.67;7.87;;;28.20;37.60;;;;;;2242069;62;20403;-69
2022/08/19 07:21:43;0.00;0.00;0.62;0.00;0.00;0.62;9.20;8.37;;;28.20;37.50;;;;;;2241167;62;20367;-64
2022/08/19 07:24:29;0.00;0.00;0.62;0.00;0.00;0.62;9.07;8.20;;;28.30;37.50;;;;;;2242016;62;20434;-64
2022/08/19 07:27:14;0.00;0.00;0.62;0.00;0.00;0.62;9.07;8.17;;;28.30;37.40;;;;;;2241898;62;20394;-63
2022/08/19 07:30:01;0.00;0.00;0.62;0.00;0.00;0.62;10.53;9.10;;;28.30;37.40;;;;;;2241259;62;20467;-66
2022/08/19 07:32:45;0.00;0.00;0.62;0.00;0.00;0.62;9.40;8.43;;;28.30;37.30;;;;;;2242009;62;20499;-71
2022/08/19 07:35:31;0.00;0.00;0.62;0.00;0.00;0.62;8.83;8.03;;;28.30;37.20;;;;;;2241895;62;20588;-72
2022/08/19 07:38:16;0.00;0.00;0.62;0.00;0.00;0.62;9.50;8.50;;;28.30;37.30;;;;;;2241788;62;20359;-70
2022/08/19 07:41:02;0.00;0.00;0.62;0.00;0.00;0.62;9.00;8.00;;;28.30;37.20;;;;;;2241939;62;20418;-73
2022/08/19 07:43:49;0.00;0.00;0.62;0.00;0.00;0.62;7.80;6.97;;;28.30;37.10;;;;;;2240624;62;20578;-72
2022/08/19 07:46:39;0.00;0.00;0.62;0.00;0.00;0.62;9.50;7.90;;;28.30;37.10;;;;;;2241827;62;20758;-67
2022/08/19 07:49:24;0.00;0.00;0.62;0.00;0.00;0.62;7.70;6.90;;;28.30;37.10;;;;;;2241521;62;20361;-71
2022/08/19 07:52:10;0.00;0.00;0.62;0.00;0.00;0.62;8.23;7.40;;;28.40;37.10;;;;;;2241122;62;20361;-71
2022/08/19 07:54:55;0.00;0.00;0.62;0.00;0.00;0.62;8.03;7.23;;;28.40;37.00;;;;;;2241767;62;20418;-70
2022/08/19 07:57:40;0.00;0.00;0.62;0.00;0.00;0.62;8.40;7.50;;;28.40;37.00;;;;;;2241727;62;20402;-68
2022/08/19 08:00:25;0.00;0.00;0.62;0.00;0.00;0.62;7.00;6.30;;;28.40;36.80;;;;;;2241386;62;20618;-69
2022/08/19 08:03:14;0.00;0.00;0.62;0.00;0.00;0.62;8.20;6.80;;;28.40;36.80;;;;;;2241935;62;20414;-66
2022/08/19 08:09:10;0.00;0.00;0.62;0.00;0.00;0.62;7.27;6.53;;;28.40;36.70;;;;;;2241807;62;20382;-72
2022/08/19 08:12:00;0.00;0.00;0.62;0.00;0.00;0.62;7.63;6.83;;;28.50;36.80;;;;;;2241928;62;20744;-69
2022/08/19 08:14:47;0.00;0.00;0.62;0.00;0.00;0.62;8.00;7.20;;;28.50;36.80;;;;;;2241156;62;20366;-72
2022/08/19 08:17:33;0.00;0.00;0.62;0.00;0.00;0.62;8.30;7.50;;;28.40;36.50;;;;;;2241816;62;20383;-69
2022/08/19 08:20:19;0.00;0.00;0.62;0.00;0.00;0.62;7.93;7.13;;;28.40;36.40;;;;;;2241391;62;20604;-70
2022/08/19 08:23:25;0.00;0.00;0.62;0.00;0.00;0.62;7.27;6.67;;;28.40;36.40;;;;;;2241829;62;20509;-68
2022/08/19 08:26:12;0.00;0.00;0.62;0.00;0.00;0.62;9.20;6.90;;;28.40;36.30;;;;;;2241669;62;20473;-69
2022/08/19 08:28:57;0.00;0.00;0.62;0.00;0.00;0.62;6.80;6.20;;;28.40;36.20;;;;;;2241048;62;20427;-65
2022/08/19 08:31:44;0.00;0.00;0.62;0.00;0.00;0.62;6.30;5.50;;;28.40;36.30;;;;;;2241654;61;20385;-63
2022/08/19 08:34:29;0.00;0.00;0.62;0.00;0.00;0.62;6.97;6.10;;;28.40;36.20;;;;;;2241257;62;20367;-64
2022/08/19 08:37:15;0.00;0.00;0.62;0.00;0.00;0.62;6.17;5.67;;;28.40;36.20;;;;;;2240892;62;20446;-63
2022/08/19 08:40:06;0.00;0.00;0.62;0.00;0.00;0.62;6.37;5.87;;;28.40;36.20;;;;;;2241855;62;20375;-70
2022/08/19 08:43:00;0.00;0.00;0.62;0.00;0.00;0.62;7.27;6.47;;;28.40;36.10;;;;;;2241144;62;20761;-70
2022/08/19 08:45:52;0.00;0.00;0.62;0.00;0.00;0.62;5.83;5.33;;;28.40;36.00;;;;;;2241252;62;20379;-69
2022/08/19 08:48:46;0.00;0.00;0.62;0.00;0.00;0.62;7.20;6.50;;;28.40;36.00;;;;;;2241734;62;20369;-64
2022/08/19 08:51:36;0.00;0.00;0.62;0.00;0.00;0.62;9.43;6.97;;;28.40;35.80;;;;;;2240994;62;20358;-70
2022/08/19 08:54:30;0.00;0.00;0.62;0.00;0.00;0.62;7.23;6.33;;;28.40;35.50;;;;;;2241268;62;20371;-69
2022/08/19 08:57:23;0.00;0.00;0.62;0.00;0.00;0.62;6.20;5.60;;;28.40;35.50;;;;;;2241253;62;20390;-63
2022/08/19 09:00:16;0.00;0.00;0.62;0.00;0.00;0.62;6.87;6.27;;;28.40;35.60;;;;;;2241706;62;20695;-70
2022/08/19 09:03:03;0.00;0.00;0.62;0.00;0.00;0.62;6.67;6.07;;;28.40;35.50;;;;;;2241704;62;20575;-62
2022/08/19 09:05:58;0.00;0.00;0.62;0.00;0.00;0.62;6.57;5.97;;;28.40;35.40;;;;;;2241179;62;20389;-65
2022/08/19 09:08:52;0.00;0.00;0.62;0.00;0.00;0.62;6.03;5.37;;;28.40;35.50;;;;;;2241360;62;20578;-68
2022/08/19 09:11:54;0.00;0.00;0.62;0.00;0.00;0.62;5.33;4.80;;;28.40;35.50;;;;;;2241788;62;20582;-65
2022/08/19 09:14:47;0.00;0.00;0.62;0.00;0.00;0.62;6.37;5.77;;;28.40;35.40;;;;;;2241717;62;20398;-67
2022/08/19 09:17:33;0.00;0.00;0.62;0.00;0.00;0.62;5.20;4.63;;;28.40;35.40;;;;;;2241661;62;20386;-68
2022/08/19 09:20:22;0.00;0.00;0.62;0.00;0.00;0.62;5.00;4.57;;;28.40;35.30;;;;;;2240914;62;20586;-71
2022/08/19 09:23:07;0.00;0.00;0.62;0.00;0.00;0.62;10.30;5.20;;;28.40;35.30;;;;;;2241666;62;20362;-63
2022/08/19 09:25:52;0.00;0.00;0.62;0.00;0.00;0.62;4.83;4.27;;;28.50;35.40;;;;;;2241273;62;20390;-69
2022/08/19 09:28:41;0.00;0.00;0.62;0.00;0.00;0.62;4.53;4.13;;;28.50;35.50;;;;;;2240939;62;20759;-64
2022/08/19 09:31:29;0.00;0.00;0.62;0.00;0.00;0.62;4.67;4.27;;;28.50;35.60;;;;;;2241665;62;20456;-66
2022/08/19 09:34:14;0.00;0.00;0.62;0.00;0.00;0.62;5.40;4.80;;;28.50;35.60;;;;;;2241467;61;20410;-64
2022/08/19 09:37:00;0.00;0.00;0.62;0.00;0.00;0.62;5.90;5.30;;;28.60;35.40;;;;;;2245417;61;20417;-64
2022/08/19 09:39:44;0.00;0.00;0.62;0.00;0.00;0.62;5.20;4.40;;;28.60;35.20;;;;;;2245551;61;20796;-66
2022/08/19 09:42:29;0.00;0.00;0.62;0.00;0.00;0.62;6.47;3.90;;;28.60;34.90;;;;;;2244892;61;20478;-64
2022/08/19 09:45:18;0.00;0.00;0.62;0.00;0.00;0.62;6.00;3.97;;;28.60;34.90;;;;;;2245641;61;20350;-67
2022/08/19 09:48:04;0.00;0.00;0.62;0.00;0.00;0.62;4.80;4.30;;;28.60;34.90;;;;;;2245627;61;20389;-70
2022/08/19 09:50:50;0.00;0.00;0.62;0.00;0.00;0.62;5.00;4.07;;;28.60;34.80;;;;;;2244925;61;20393;-66
2022/08/19 09:53:37;0.00;0.00;0.62;0.00;0.00;0.62;4.23;3.83;;;28.60;34.80;;;;;;2245541;61;20410;-63
2022/08/19 09:56:22;0.00;0.00;0.62;0.00;0.00;0.62;3.50;3.20;;;28.70;34.80;;;;;;2245404;61;20409;-69
2022/08/19 09:59:09;0.00;0.00;0.62;0.00;0.00;0.62;3.40;3.10;;;28.70;34.70;;;;;;2245517;61;20454;-67
2022/08/19 10:01:55;0.00;0.00;0.62;0.00;0.00;0.62;4.53;3.87;;;28.70;34.70;;;;;;2245114;61;20398;-67
2022/08/19 10:07:43;0.00;0.00;0.62;0.00;0.00;0.62;4.00;3.60;;;28.70;34.50;;;;;;2246219;61;20402;-66
2022/08/19 10:10:28;0.00;0.00;0.62;0.00;0.00;0.62;4.40;3.27;;;28.70;34.40;;;;;;2246242;61;20406;-61
2022/08/19 10:13:16;0.00;0.00;0.62;0.00;0.00;0.62;3.47;3.07;;;28.80;34.40;;;;;;2245517;61;20365;-57
2022/08/19 10:16:06;0.00;0.00;0.62;0.00;0.00;0.62;3.00;2.70;;;28.80;34.30;;;;;;2246079;61;20433;-60
2022/08/19 10:18:54;0.00;0.00;0.62;0.00;0.00;0.62;4.43;2.80;;;28.80;34.30;;;;;;2245671;61;20370;-61
2022/08/19 10:21:40;0.00;0.00;0.62;0.00;0.00;0.62;3.97;3.53;;;28.80;34.20;;;;;;2245766;61;20450;-62
2022/08/19 10:24:27;0.00;0.00;0.62;0.00;0.00;0.62;3.10;2.53;;;28.80;34.20;;;;;;2246251;61;20397;-60
2022/08/19 10:27:13;0.00;0.00;0.62;0.00;0.00;0.62;4.17;3.77;;;28.90;34.00;;;;;;2245418;61;20421;-62
2022/08/19 10:29:58;0.00;0.00;0.62;0.00;0.00;0.62;3.00;2.73;;;28.90;34.00;;;;;;2246183;61;20479;-62
2022/08/19 10:32:44;0.00;0.00;0.62;0.00;0.00;0.62;3.90;3.20;;;28.90;33.90;;;;;;2246181;61;20381;-61
2022/08/19 10:35:30;0.00;0.00;0.62;0.00;0.00;0.62;3.33;3.00;;;28.90;33.90;;;;;;2245548;61;20401;-62
2022/08/19 10:38:15;0.00;0.00;0.62;0.00;0.00;0.62;4.40;3.33;;;28.90;34.00;;;;;;2246151;61;20813;-62
2022/08/19 10:41:08;0.00;0.00;0.62;0.00;0.00;0.62;3.33;2.80;;;28.90;34.10;;;;;;2245603;61;20360;-60
2022/08/19 10:43:54;0.00;0.00;0.62;0.00;0.00;0.62;3.37;2.83;;;28.90;34.70;;;;;;2246172;61;20386;-62
2022/08/19 10:46:44;0.00;0.00;0.62;0.00;0.00;0.62;3.30;3.00;;;28.90;33.80;;;;;;2245989;61;20461;-64
2022/08/19 10:49:29;0.00;0.00;0.62;0.00;0.00;0.62;3.73;2.80;;;29.00;33.60;;;;;;2245503;61;20737;-61
2022/08/19 10:52:33;0.00;0.00;0.62;0.00;0.00;0.62;2.47;2.27;;;29.00;33.30;;;;;;2246138;61;20370;-63
2022/08/19 10:58:26;0.00;0.00;0.62;0.00;0.00;0.62;3.30;2.63;;;29.10;33.30;;;;;;2246055;61;20377;-60
2022/08/19 11:01:10;0.00;0.00;0.62;0.00;0.00;0.62;5.63;2.70;;;29.10;32.80;;;;;;2246120;61;20675;-60
2022/08/19 11:03:57;0.00;0.00;0.62;0.00;0.00;0.62;3.57;2.77;;;29.00;32.80;;;;;;2245432;61;20386;-60
2022/08/19 11:06:43;0.00;0.00;0.62;0.00;0.00;0.62;3.50;2.50;;;29.10;32.80;;;;;;2245964;61;20397;-60
2022/08/19 11:09:30;0.00;0.00;0.62;0.00;0.00;0.62;3.27;2.83;;;29.10;32.80;;;;;;2246022;61;20369;-60
2022/08/19 11:12:15;0.00;0.00;0.62;0.00;0.00;0.62;3.33;2.20;;;29.10;32.90;;;;;;2245343;61;20370;-63
2022/08/19 11:15:00;0.00;0.00;0.62;0.00;0.00;0.62;5.37;3.00;;;29.10;32.60;;;;;;2246033;61;20404;-64
2022/08/19 11:17:45;0.00;0.00;0.62;0.00;0.00;0.62;2.50;2.30;;;29.10;32.40;;;;;;2245340;61;20764;-61